Time;durP1;ratioP1;P1;durP2;ratioP2;P2;SDS_P1;SDS_P2;PMS_P1;PMS_P2;Temp;Humidity;BMP_temperature;BMP_pressure;BME280_temperature;BME280_humidity;BME280_pressure;Samples;Min_cycle;Max_cycle;Signal;HPM_P1;HPM_P2
2022/07/22 00:01:34;;;;;;;;;;;;;;;;;;5025420;28;47509;-77
2022/07/22 00:04:02;;;;;;;;;;;;;;;;;;5038624;28;47861;-77
2022/07/22 00:06:28;;;;;;;;;;;;;;;;;;5031592;28;42505;-76
2022/07/22 00:08:54;;;;;;;;;;;;;;;;;;5036825;28;46457;-77
2022/07/22 00:11:21;;;;;;;;;;;;;;;;;;5031699;28;47735;-77
2022/07/22 00:13:47;;;;;;;;;;;;;;;;;;5029642;28;43719;-77
2022/07/22 00:16:14;;;;;;;;;;;;;;;;;;5039816;28;46834;-77
2022/07/22 00:18:40;;;;;;;;;;;;;;;;;;5024895;28;41776;-77
2022/07/22 00:21:06;;;;;;;;;;;;;;;;;;5032483;28;46301;-77
2022/07/22 00:23:35;;;;;;;;;;;;;;;;;;5024643;28;48874;-76
2022/07/22 00:26:01;;;;;;;;;;;;;;;;;;5027937;28;43594;-77
2022/07/22 00:28:27;;;;;;;;;;;;;;;;;;5033410;28;47489;-76
2022/07/22 00:30:54;;;;;;;;;;;;;;;;;;5039454;28;45706;-76
2022/07/22 00:33:20;;;;;;;;;;;;;;;;;;5030193;28;43673;-76
2022/07/22 00:35:46;;;;;;;;;;;;;;;;;;5029338;28;47450;-77
2022/07/22 00:38:15;;;;;;;;;;;;;;;;;;5040179;28;45827;-76
2022/07/22 00:40:41;;;;;;;;;;;;;;;;;;5017724;28;45028;-77
2022/07/22 00:43:08;;;;;;;;;;;;;;;;;;5040830;28;48083;-76
2022/07/22 00:45:34;;;;;;;;;;;;;;;;;;5020572;28;43749;-76
2022/07/22 00:48:00;;;;;;;;;;;;;;;;;;5034133;28;46441;-77
2022/07/22 00:50:26;;;;;;;;;;;;;;;;;;5044193;28;45733;-77
2022/07/22 00:52:53;;;;;;;;;;;;;;;;;;5030133;28;45027;-77
2022/07/22 00:55:19;;;;;;;;;;;;;;;;;;5029278;28;46877;-77
2022/07/22 00:57:45;;;;;;;;;;;;;;;;;;5039048;28;46980;-76
2022/07/22 01:00:11;;;;;;;;;;;;;;;;;;5029064;28;45328;-76
2022/07/22 01:02:38;;;;;;;;;;;;;;;;;;5029705;28;47091;-76
2022/07/22 01:05:04;;;;;;;;;;;;;;;;;;5030303;28;44116;-76
2022/07/22 01:07:30;;;;;;;;;;;;;;;;;;5039350;28;46422;-76
2022/07/22 01:09:56;;;;;;;;;;;;;;;;;;5021715;28;46027;-77
2022/07/22 01:12:23;;;;;;;;;;;;;;;;;;5030306;28;42750;-77
2022/07/22 01:14:49;;;;;;;;;;;;;;;;;;5032229;28;46447;-77
2022/07/22 01:17:15;;;;;;;;;;;;;;;;;;5027814;28;47047;-77
2022/07/22 01:19:41;;;;;;;;;;;;;;;;;;5033054;28;45548;-78
2022/07/22 01:22:08;;;;;;;;;;;;;;;;;;5034928;28;44728;-78
2022/07/22 01:24:34;;;;;;;;;;;;;;;;;;5028770;28;44569;-77
2022/07/22 01:27:00;;;;;;;;;;;;;;;;;;5023838;28;46417;-77
2022/07/22 01:29:26;;;;;;;;;;;;;;;;;;5031377;28;46665;-77
2022/07/22 01:31:53;;;;;;;;;;;;;;;;;;5026774;28;42524;-77
2022/07/22 01:34:19;;;;;;;;;;;;;;;;;;5033823;28;47541;-77
2022/07/22 01:36:45;;;;;;;;;;;;;;;;;;5027339;28;45405;-76
2022/07/22 01:39:12;;;;;;;;;;;;;;;;;;5028886;28;43537;-77
2022/07/22 01:41:38;;;;;;;;;;;;;;;;;;5026028;28;47755;-77
2022/07/22 01:44:04;;;;;;;;;;;;;;;;;;5023544;28;41573;-78
2022/07/22 01:46:31;;;;;;;;;;;;;;;;;;5035530;28;46551;-77
2022/07/22 01:48:57;;;;;;;;;;;;;;;;;;5031004;28;48215;-77
2022/07/22 01:51:24;;;;;;;;;;;;;;;;;;5027835;28;44269;-77
2022/07/22 01:53:50;;;;;;;;;;;;;;;;;;5025384;28;47921;-77
2022/07/22 01:56:16;;;;;;;;;;;;;;;;;;5042902;28;47982;-78
2022/07/22 01:58:43;;;;;;;;;;;;;;;;;;5034534;28;42363;-78
2022/07/22 02:01:09;;;;;;;;;;;;;;;;;;5020178;28;47453;-78
2022/07/22 02:03:35;;;;;;;;;;;;;;;;;;5026313;28;46814;-78
2022/07/22 02:06:02;;;;;;;;;;;;;;;;;;5026284;28;46561;-78
2022/07/22 02:08:28;;;;;;;;;;;;;;;;;;5033552;28;46966;-78
2022/07/22 02:10:55;;;;;;;;;;;;;;;;;;5017559;28;43590;-78
2022/07/22 02:13:21;;;;;;;;;;;;;;;;;;5028395;28;46437;-78
2022/07/22 02:15:47;;;;;;;;;;;;;;;;;;5028542;28;46984;-78
2022/07/22 02:18:13;;;;;;;;;;;;;;;;;;5021364;28;43790;-78
2022/07/22 02:20:40;;;;;;;;;;;;;;;;;;5038073;28;46452;-77
2022/07/22 02:23:06;;;;;;;;;;;;;;;;;;5042779;28;46064;-77
2022/07/22 02:25:32;;;;;;;;;;;;;;;;;;5033559;28;42242;-77
2022/07/22 02:27:58;;;;;;;;;;;;;;;;;;5033256;28;47158;-77
2022/07/22 02:30:25;;;;;;;;;;;;;;;;;;5027861;28;41387;-77
2022/07/22 02:32:51;;;;;;;;;;;;;;;;;;5038901;28;46824;-77
2022/07/22 02:35:17;;;;;;;;;;;;;;;;;;5030110;28;48316;-77
2022/07/22 02:37:44;;;;;;;;;;;;;;;;;;5036479;28;45008;-77
2022/07/22 02:40:10;;;;;;;;;;;;;;;;;;5034542;28;45346;-77
2022/07/22 02:42:36;;;;;;;;;;;;;;;;;;5031087;28;47185;-77
2022/07/22 02:45:03;;;;;;;;;;;;;;;;;;5034352;28;43866;-77
2022/07/22 02:47:29;;;;;;;;;;;;;;;;;;5029688;28;46470;-77
2022/07/22 02:49:55;;;;;;;;;;;;;;;;;;5032503;28;43762;-77
2022/07/22 02:52:21;;;;;;;;;;;;;;;;;;5033034;28;46713;-78
2022/07/22 02:54:48;;;;;;;;;;;;;;;;;;5039141;28;48636;-78
2022/07/22 02:57:14;;;;;;;;;;;;;;;;;;5039283;28;43730;-78
2022/07/22 02:59:40;;;;;;;;;;;;;;;;;;5030173;28;45466;-77
2022/07/22 03:02:08;;;;;;;;;;;;;;;;;;5037700;28;46976;-77
2022/07/22 03:04:34;;;;;;;;;;;;;;;;;;5045236;28;45411;-78
2022/07/22 03:07:01;;;;;;;;;;;;;;;;;;5044785;28;44467;-77
2022/07/22 03:09:27;;;;;;;;;;;;;;;;;;5033359;28;44627;-78
2022/07/22 03:11:53;;;;;;;;;;;;;;;;;;5040774;28;46327;-78
2022/07/22 03:14:19;;;;;;;;;;;;;;;;;;5034188;28;47090;-78
2022/07/22 03:16:46;;;;;;;;;;;;;;;;;;5030849;28;46760;-77
2022/07/22 03:19:12;;;;;;;;;;;;;;;;;;5032481;28;47867;-77
2022/07/22 03:21:38;;;;;;;;;;;;;;;;;;5031313;28;48466;-77
2022/07/22 03:24:04;;;;;;;;;;;;;;;;;;5031784;28;44880;-77
2022/07/22 03:26:31;;;;;;;;;;;;;;;;;;5026184;28;47603;-77
2022/07/22 03:28:57;;;;;;;;;;;;;;;;;;5033337;28;46657;-77
2022/07/22 03:31:24;;;;;;;;;;;;;;;;;;5030664;28;47692;-77
2022/07/22 03:33:50;;;;;;;;;;;;;;;;;;5031760;28;46998;-78
2022/07/22 03:36:17;;;;;;;;;;;;;;;;;;5033246;28;45199;-77
2022/07/22 03:38:43;;;;;;;;;;;;;;;;;;5028734;28;47786;-78
2022/07/22 03:41:09;;;;;;;;;;;;;;;;;;5032350;28;46393;-77
2022/07/22 03:43:36;;;;;;;;;;;;;;;;;;5026081;28;44816;-78
2022/07/22 03:46:02;;;;;;;;;;;;;;;;;;5037356;28;43518;-78
2022/07/22 03:48:28;;;;;;;;;;;;;;;;;;5041425;28;45528;-76
2022/07/22 03:50:55;;;;;;;;;;;;;;;;;;5032569;28;44949;-76
2022/07/22 03:53:21;;;;;;;;;;;;;;;;;;5030754;28;48101;-79
2022/07/22 03:55:47;;;;;;;;;;;;;;;;;;5043412;28;41608;-77
2022/07/22 03:58:14;;;;;;;;;;;;;;;;;;5035261;28;46309;-76
2022/07/22 04:00:40;;;;;;;;;;;;;;;;;;5024631;28;47224;-77
2022/07/22 04:03:06;;;;;;;;;;;;;;;;;;5029612;28;44392;-77
2022/07/22 04:05:32;;;;;;;;;;;;;;;;;;5049023;28;46489;-77
2022/07/22 04:07:59;;;;;;;;;;;;;;;;;;5032500;28;49592;-77
2022/07/22 04:10:25;;;;;;;;;;;;;;;;;;5031365;28;42356;-76
2022/07/22 04:12:51;;;;;;;;;;;;;;;;;;5030404;28;44962;-77
2022/07/22 04:15:17;;;;;;;;;;;;;;;;;;5035714;28;45815;-77
2022/07/22 04:17:44;;;;;;;;;;;;;;;;;;5046956;28;46238;-77
2022/07/22 04:20:10;;;;;;;;;;;;;;;;;;5029841;28;47243;-77
2022/07/22 04:22:36;;;;;;;;;;;;;;;;;;5038589;28;43534;-77
2022/07/22 04:25:02;;;;;;;;;;;;;;;;;;5035522;28;46435;-77
2022/07/22 04:27:29;;;;;;;;;;;;;;;;;;5038701;28;47966;-77
2022/07/22 04:29:55;;;;;;;;;;;;;;;;;;5023982;28;42890;-77
2022/07/22 04:32:21;;;;;;;;;;;;;;;;;;5032955;28;45334;-77
2022/07/22 04:34:48;;;;;;;;;;;;;;;;;;5025822;28;46457;-77
2022/07/22 04:37:14;;;;;;;;;;;;;;;;;;5028350;28;45706;-77
2022/07/22 04:39:40;;;;;;;;;;;;;;;;;;5033131;28;47973;-77
2022/07/22 04:42:07;;;;;;;;;;;;;;;;;;5028431;28;44150;-78
2022/07/22 04:44:33;;;;;;;;;;;;;;;;;;5027997;28;45189;-77
2022/07/22 04:46:59;;;;;;;;;;;;;;;;;;5035477;28;48024;-77
2022/07/22 04:49:31;;;;;;;;;;;;;;;;;;5025484;28;45609;-77
2022/07/22 04:51:57;;;;;;;;;;;;;;;;;;5033283;28;47752;-77
2022/07/22 04:54:23;;;;;;;;;;;;;;;;;;5026485;28;47880;-77
2022/07/22 04:56:50;;;;;;;;;;;;;;;;;;5029366;28;42389;-78
2022/07/22 04:59:16;;;;;;;;;;;;;;;;;;5035564;28;45634;-77
2022/07/22 05:01:42;;;;;;;;;;;;;;;;;;5039528;28;44832;-78
2022/07/22 05:04:09;;;;;;;;;;;;;;;;;;5040848;28;45937;-78
2022/07/22 05:06:35;;;;;;;;;;;;;;;;;;5037509;28;44484;-79
2022/07/22 05:09:01;;;;;;;;;;;;;;;;;;5041966;28;42495;-78
2022/07/22 05:11:27;;;;;;;;;;;;;;;;;;5035861;28;47448;-78
2022/07/22 05:13:53;;;;;;;;;;;;;;;;;;5047688;28;44154;-78
2022/07/22 05:16:20;;;;;;;;;;;;;;;;;;5037344;28;43013;-78
2022/07/22 05:18:46;;;;;;;;;;;;;;;;;;5048674;28;44220;-78
2022/07/22 05:21:12;;;;;;;;;;;;;;;;;;5034310;28;41465;-78
2022/07/22 05:23:38;;;;;;;;;;;;;;;;;;5024990;28;47676;-77
2022/07/22 05:26:05;;;;;;;;;;;;;;;;;;5027507;28;48040;-78
2022/07/22 05:28:31;;;;;;;;;;;;;;;;;;5038415;28;45133;-78
2022/07/22 05:30:57;;;;;;;;;;;;;;;;;;5029543;28;44513;-76
2022/07/22 05:33:24;;;;;;;;;;;;;;;;;;5029018;28;48556;-76
2022/07/22 05:35:50;;;;;;;;;;;;;;;;;;5028885;28;40114;-76
2022/07/22 05:38:16;;;;;;;;;;;;;;;;;;5029148;28;45422;-76
2022/07/22 05:40:45;;;;;;;;;;;;;;;;;;5026166;28;43688;-77
2022/07/22 05:43:11;;;;;;;;;;;;;;;;;;5026225;28;47564;-77
2022/07/22 05:45:37;;;;;;;;;;;;;;;;;;5028875;28;47145;-77
2022/07/22 05:48:04;;;;;;;;;;;;;;;;;;5029448;28;45073;-77
2022/07/22 05:50:30;;;;;;;;;;;;;;;;;;5029056;28;46726;-77
2022/07/22 05:52:56;;;;;;;;;;;;;;;;;;5029010;28;45447;-77
2022/07/22 05:55:22;;;;;;;;;;;;;;;;;;5030477;28;42475;-77
2022/07/22 05:57:49;;;;;;;;;;;;;;;;;;5027854;28;44261;-76
2022/07/22 06:00:15;;;;;;;;;;;;;;;;;;5024929;28;47199;-76
2022/07/22 06:02:41;;;;;;;;;;;;;;;;;;5029606;28;46450;-77
2022/07/22 06:05:07;;;;;;;;;;;;;;;;;;5023548;28;46811;-78
2022/07/22 06:07:34;;;;;;;;;;;;;;;;;;5034922;28;46164;-77
2022/07/22 06:10:00;;;;;;;;;;;;;;;;;;5029623;28;46290;-78
2022/07/22 06:12:26;;;;;;;;;;;;;;;;;;5042250;28;49729;-78
2022/07/22 06:14:52;;;;;;;;;;;;;;;;;;5048207;28;42539;-78
2022/07/22 06:17:19;;;;;;;;;;;;;;;;;;5048022;28;47592;-78
2022/07/22 06:19:45;;;;;;;;;;;;;;;;;;5047208;28;45924;-78
2022/07/22 06:22:11;;;;;;;;;;;;;;;;;;5053291;28;41238;-78
2022/07/22 06:24:37;;;;;;;;;;;;;;;;;;5054191;28;48098;-78
2022/07/22 06:27:04;;;;;;;;;;;;;;;;;;5028193;28;46464;-77
2022/07/22 06:29:30;;;;;;;;;;;;;;;;;;5035546;28;46440;-78
2022/07/22 06:31:57;;;;;;;;;;;;;;;;;;5037016;28;47430;-78
2022/07/22 06:34:24;;;;;;;;;;;;;;;;;;5021388;28;44898;-78
2022/07/22 06:36:50;;;;;;;;;;;;;;;;;;5027378;28;47707;-78
2022/07/22 06:39:16;;;;;;;;;;;;;;;;;;5032023;28;47979;-77
2022/07/22 06:41:42;;;;;;;;;;;;;;;;;;5033094;28;46157;-78
2022/07/22 06:44:09;;;;;;;;;;;;;;;;;;5030303;28;46696;-78
2022/07/22 06:46:37;;;;;;;;;;;;;;;;;;5031868;28;44988;-78
2022/07/22 06:49:04;;;;;;;;;;;;;;;;;;5026113;28;46483;-78
2022/07/22 06:51:30;;;;;;;;;;;;;;;;;;5026058;28;46894;-77
2022/07/22 06:53:56;;;;;;;;;;;;;;;;;;5034214;28;44975;-78
2022/07/22 06:56:22;;;;;;;;;;;;;;;;;;5027872;28;47616;-78
2022/07/22 06:58:49;;;;;;;;;;;;;;;;;;5028047;28;47553;-78
2022/07/22 07:01:15;;;;;;;;;;;;;;;;;;5026495;28;45270;-77
2022/07/22 07:03:41;;;;;;;;;;;;;;;;;;5026200;28;49622;-77
2022/07/22 07:06:08;;;;;;;;;;;;;;;;;;5019401;28;34485;-77
2022/07/22 07:08:34;;;;;;;;;;;;;;;;;;5024930;28;46097;-77
2022/07/22 07:11:01;;;;;;;;;;;;;;;;;;5024631;28;47998;-77
2022/07/22 07:13:28;;;;;;;;;;;;;;;;;;5025828;28;43729;-78
2022/07/22 07:15:54;;;;;;;;;;;;;;;;;;5027684;28;46318;-77
2022/07/22 07:18:21;;;;;;;;;;;;;;;;;;5019829;28;46933;-78
2022/07/22 07:20:47;;;;;;;;;;;;;;;;;;5024632;28;45622;-77
2022/07/22 07:23:13;;;;;;;;;;;;;;;;;;5026428;28;46430;-78
2022/07/22 07:25:40;;;;;;;;;;;;;;;;;;5033006;28;47877;-77
2022/07/22 07:28:06;;;;;;;;;;;;;;;;;;5044121;28;44770;-78
2022/07/22 07:30:32;;;;;;;;;;;;;;;;;;5032740;28;46816;-78
2022/07/22 07:33:00;;;;;;;;;;;;;;;;;;5032710;28;42164;-78
2022/07/22 07:35:26;;;;;;;;;;;;;;;;;;5033583;28;44610;-78
2022/07/22 07:37:57;;;;;;;;;;;;;;;;;;5036565;28;47251;-78
2022/07/22 07:40:23;;;;;;;;;;;;;;;;;;5033106;28;46541;-79
2022/07/22 07:42:49;;;;;;;;;;;;;;;;;;5035125;28;45409;-79
2022/07/22 07:45:26;;;;;;;;;;;;;;;;;;5022190;28;46891;-78
2022/07/22 07:47:52;;;;;;;;;;;;;;;;;;5032393;28;43904;-78
2022/07/22 07:50:19;;;;;;;;;;;;;;;;;;5029134;28;48357;-78
2022/07/22 07:52:48;;;;;;;;;;;;;;;;;;5028258;28;41704;-77
2022/07/22 07:55:17;;;;;;;;;;;;;;;;;;5047603;28;46040;-78
2022/07/22 07:57:48;;;;;;;;;;;;;;;;;;5023085;28;45588;-79
2022/07/22 08:00:14;;;;;;;;;;;;;;;;;;5031360;28;41491;-79
2022/07/22 08:02:41;;;;;;;;;;;;;;;;;;5031930;28;44841;-79
2022/07/22 08:05:07;;;;;;;;;;;;;;;;;;5031542;28;48318;-79
2022/07/22 08:07:35;;;;;;;;;;;;;;;;;;5037752;28;42110;-78
2022/07/22 08:10:01;;;;;;;;;;;;;;;;;;5042080;28;44857;-79
2022/07/22 08:12:47;;;;;;;;;;;;;;;;;;5042098;28;19937;-79
2022/07/22 08:15:14;;;;;;;;;;;;;;;;;;5052363;28;46435;-79
2022/07/22 08:17:40;;;;;;;;;;;;;;;;;;5023726;28;47065;-76
2022/07/22 08:20:06;;;;;;;;;;;;;;;;;;5030973;28;44748;-78
2022/07/22 08:22:33;;;;;;;;;;;;;;;;;;5032288;28;44265;-76
2022/07/22 08:24:59;;;;;;;;;;;;;;;;;;5031028;28;45697;-77
2022/07/22 08:27:26;;;;;;;;;;;;;;;;;;5022916;28;41863;-77
2022/07/22 08:29:54;;;;;;;;;;;;;;;;;;5050235;28;45940;-76
2022/07/22 08:32:21;;;;;;;;;;;;;;;;;;5044565;28;44830;-76
2022/07/22 08:34:48;;;;;;;;;;;;;;;;;;5059799;28;45340;-77
2022/07/22 08:37:14;;;;;;;;;;;;;;;;;;5031976;28;45562;-76
2022/07/22 08:39:40;;;;;;;;;;;;;;;;;;5036564;28;43921;-77
2022/07/22 08:42:07;;;;;;;;;;;;;;;;;;5017244;28;46102;-77
2022/07/22 08:44:33;;;;;;;;;;;;;;;;;;5014412;28;47603;-78
2022/07/22 08:46:59;;;;;;;;;;;;;;;;;;5023358;28;42108;-78
2022/07/22 08:49:46;;;;;;;;;;;;;;;;;;5023160;28;19933;-77
2022/07/22 08:52:12;;;;;;;;;;;;;;;;;;5015378;28;48171;-77
2022/07/22 08:54:38;;;;;;;;;;;;;;;;;;5016142;28;45078;-76
2022/07/22 08:57:04;;;;;;;;;;;;;;;;;;5027843;28;48121;-77
2022/07/22 08:59:31;;;;;;;;;;;;;;;;;;5036580;28;43834;-77
2022/07/22 09:01:57;;;;;;;;;;;;;;;;;;5049249;28;45911;-77
2022/07/22 09:04:23;;;;;;;;;;;;;;;;;;5052182;28;47316;-76
2022/07/22 09:06:50;;;;;;;;;;;;;;;;;;5032100;28;43784;-77
2022/07/22 09:09:16;;;;;;;;;;;;;;;;;;5022638;28;49569;-77
2022/07/22 09:11:42;;;;;;;;;;;;;;;;;;5023198;28;48404;-76
2022/07/22 09:14:08;;;;;;;;;;;;;;;;;;5025606;28;43747;-76
2022/07/22 09:16:35;;;;;;;;;;;;;;;;;;5038892;28;48138;-77
2022/07/22 09:19:01;;;;;;;;;;;;;;;;;;5031267;28;41786;-76
2022/07/22 09:21:27;;;;;;;;;;;;;;;;;;5023584;28;46463;-76
2022/07/22 09:23:54;;;;;;;;;;;;;;;;;;5039741;28;46984;-76
2022/07/22 09:26:20;;;;;;;;;;;;;;;;;;5016738;28;43722;-76
2022/07/22 09:28:46;;;;;;;;;;;;;;;;;;5018963;28;48225;-76
2022/07/22 09:31:13;;;;;;;;;;;;;;;;;;5028229;28;47518;-76
2022/07/22 09:33:44;;;;;;;;;;;;;;;;;;5024082;28;46115;-75
2022/07/22 09:36:11;;;;;;;;;;;;;;;;;;5024884;28;47944;-77
2022/07/22 09:38:37;;;;;;;;;;;;;;;;;;5029068;28;44973;-75
2022/07/22 09:41:03;;;;;;;;;;;;;;;;;;5027944;28;47360;-76
2022/07/22 09:43:34;;;;;;;;;;;;;;;;;;5023909;28;47290;-76
2022/07/22 09:46:00;;;;;;;;;;;;;;;;;;5019813;28;42140;-76
2022/07/22 09:48:26;;;;;;;;;;;;;;;;;;5017212;28;46355;-74
2022/07/22 09:50:53;;;;;;;;;;;;;;;;;;5018120;28;47150;-76
2022/07/22 09:53:20;;;;;;;;;;;;;;;;;;5021358;28;40968;-76
2022/07/22 09:55:46;;;;;;;;;;;;;;;;;;5027105;28;44609;-76
2022/07/22 09:58:12;;;;;;;;;;;;;;;;;;5024345;28;46988;-76
2022/07/22 10:00:38;;;;;;;;;;;;;;;;;;5021846;28;46339;-76
2022/07/22 10:03:05;;;;;;;;;;;;;;;;;;5020086;28;48479;-76
2022/07/22 10:05:31;;;;;;;;;;;;;;;;;;5021935;28;44871;-76
2022/07/22 10:24:36;;;;;;;;;;;;;;;;;;5097258;22;19933;-75
2022/07/22 10:27:03;;;;;;;;;;;;;;;;;;5046959;28;43834;-77
2022/07/22 10:29:29;;;;;;;;;;;;;;;;;;5059747;28;45625;-77
2022/07/22 10:31:55;;;;;;;;;;;;;;;;;;5067272;28;48281;-77
2022/07/22 10:34:22;;;;;;;;;;;;;;;;;;5061904;28;44016;-77
2022/07/22 10:36:48;;;;;;;;;;;;;;;;;;5046897;28;46502;-76
2022/07/22 10:39:14;;;;;;;;;;;;;;;;;;5065746;28;48385;-76
2022/07/22 10:41:41;;;;;;;;;;;;;;;;;;5047837;28;43735;-77
2022/07/22 10:44:07;;;;;;;;;;;;;;;;;;5046346;28;47569;-76
2022/07/22 10:46:33;;;;;;;;;;;;;;;;;;5042435;28;40724;-76
2022/07/22 10:49:00;;;;;;;;;;;;;;;;;;5038430;28;46481;-75
2022/07/22 10:51:26;;;;;;;;;;;;;;;;;;5044776;28;45846;-76
2022/07/22 10:53:53;;;;;;;;;;;;;;;;;;5066634;28;43648;-76
2022/07/22 10:56:19;;;;;;;;;;;;;;;;;;5045551;28;46363;-76
2022/07/22 10:58:46;;;;;;;;;;;;;;;;;;5061446;28;47043;-76
2022/07/22 11:01:12;;;;;;;;;;;;;;;;;;5060017;28;44227;-76
2022/07/22 11:03:39;;;;;;;;;;;;;;;;;;5059813;28;46473;-77
2022/07/22 11:06:05;;;;;;;;;;;;;;;;;;5063606;28;47006;-76
2022/07/22 11:08:31;;;;;;;;;;;;;;;;;;5047459;28;48189;-76
2022/07/22 11:10:57;;;;;;;;;;;;;;;;;;5062653;28;46582;-76
2022/07/22 11:13:24;;;;;;;;;;;;;;;;;;5057602;28;46704;-76
2022/07/22 11:15:50;;;;;;;;;;;;;;;;;;5062888;28;47728;-76
2022/07/22 11:18:16;;;;;;;;;;;;;;;;;;5062633;28;48302;-75
2022/07/22 11:20:44;;;;;;;;;;;;;;;;;;5060840;28;43660;-75
2022/07/22 11:23:10;;;;;;;;;;;;;;;;;;5043885;28;43679;-76
2022/07/22 11:25:36;;;;;;;;;;;;;;;;;;5061322;28;47240;-75
2022/07/22 11:28:02;;;;;;;;;;;;;;;;;;5065265;28;47382;-75
2022/07/22 11:30:29;;;;;;;;;;;;;;;;;;5047835;28;48123;-75
2022/07/22 11:32:55;;;;;;;;;;;;;;;;;;5067621;28;43797;-76
2022/07/22 11:35:22;;;;;;;;;;;;;;;;;;5049098;28;47801;-75
2022/07/22 11:37:48;;;;;;;;;;;;;;;;;;5065787;28;46953;-77
2022/07/22 11:40:16;;;;;;;;;;;;;;;;;;5048521;28;45777;-77
2022/07/22 11:42:42;;;;;;;;;;;;;;;;;;5036426;28;44818;-77
2022/07/22 11:45:09;;;;;;;;;;;;;;;;;;5046563;28;48254;-77
2022/07/22 11:47:35;;;;;;;;;;;;;;;;;;5062195;28;44829;-78
2022/07/22 11:50:01;;;;;;;;;;;;;;;;;;5048895;28;46516;-78
2022/07/22 11:52:27;;;;;;;;;;;;;;;;;;5048805;28;45371;-77
2022/07/22 11:54:54;;;;;;;;;;;;;;;;;;5060308;28;46114;-77
2022/07/22 11:57:20;;;;;;;;;;;;;;;;;;5064327;28;45661;-78
2022/07/22 11:59:46;;;;;;;;;;;;;;;;;;5057952;28;44762;-77
2022/07/22 12:02:13;;;;;;;;;;;;;;;;;;5043878;28;47572;-77
2022/07/22 12:04:40;;;;;;;;;;;;;;;;;;5048034;28;47153;-77
2022/07/22 12:07:06;;;;;;;;;;;;;;;;;;5063767;28;45306;-77
2022/07/22 12:09:33;;;;;;;;;;;;;;;;;;5049387;28;44399;-77
2022/07/22 12:11:59;;;;;;;;;;;;;;;;;;5043262;28;44912;-77
2022/07/22 12:14:26;;;;;;;;;;;;;;;;;;5062017;28;47519;-77
2022/07/22 12:16:52;;;;;;;;;;;;;;;;;;5062621;28;48376;-78
2022/07/22 12:19:18;;;;;;;;;;;;;;;;;;5046788;28;44772;-78
2022/07/22 12:21:45;;;;;;;;;;;;;;;;;;5058315;28;45467;-78
2022/07/22 12:24:11;;;;;;;;;;;;;;;;;;5044215;28;45921;-77
2022/07/22 12:26:38;;;;;;;;;;;;;;;;;;5064203;28;44604;-77
2022/07/22 12:29:06;;;;;;;;;;;;;;;;;;5061791;28;45732;-76
2022/07/22 12:31:32;;;;;;;;;;;;;;;;;;5064719;28;47014;-77
2022/07/22 12:33:58;;;;;;;;;;;;;;;;;;5044744;28;44545;-78
2022/07/22 12:36:25;;;;;;;;;;;;;;;;;;5069054;28;48444;-77
2022/07/22 12:38:51;;;;;;;;;;;;;;;;;;5046788;28;45213;-76
2022/07/22 12:41:17;;;;;;;;;;;;;;;;;;5044717;28;47355;-76
2022/07/22 12:43:44;;;;;;;;;;;;;;;;;;5060827;28;48712;-77
2022/07/22 12:46:10;;;;;;;;;;;;;;;;;;5048465;28;43346;-76
2022/07/22 12:48:36;;;;;;;;;;;;;;;;;;5065178;28;47777;-76
2022/07/22 12:51:03;;;;;;;;;;;;;;;;;;5048889;28;46007;-76
2022/07/22 12:53:30;;;;;;;;;;;;;;;;;;5069926;28;42172;-77
2022/07/22 12:55:57;;;;;;;;;;;;;;;;;;5052046;28;44201;-77
2022/07/22 12:58:23;;;;;;;;;;;;;;;;;;5049295;28;43268;-77
2022/07/22 13:00:49;;;;;;;;;;;;;;;;;;5068367;28;44471;-77
2022/07/22 13:03:18;;;;;;;;;;;;;;;;;;5042693;28;48289;-77
2022/07/22 13:05:45;;;;;;;;;;;;;;;;;;5051697;28;41948;-77
2022/07/22 13:08:11;;;;;;;;;;;;;;;;;;5069171;28;46290;-76
2022/07/22 13:10:38;;;;;;;;;;;;;;;;;;5049236;28;48169;-77
2022/07/22 13:13:04;;;;;;;;;;;;;;;;;;5063786;28;40832;-77
2022/07/22 13:15:31;;;;;;;;;;;;;;;;;;5051378;28;43632;-77
2022/07/22 13:17:57;;;;;;;;;;;;;;;;;;5051459;28;43160;-77
2022/07/22 13:20:23;;;;;;;;;;;;;;;;;;5063183;28;46410;-77
2022/07/22 13:22:49;;;;;;;;;;;;;;;;;;5067063;28;47138;-76
2022/07/22 13:25:16;;;;;;;;;;;;;;;;;;5066231;28;45283;-76
2022/07/22 13:27:42;;;;;;;;;;;;;;;;;;5066523;28;46405;-76
2022/07/22 13:30:08;;;;;;;;;;;;;;;;;;5068803;28;47975;-77
2022/07/22 13:32:35;;;;;;;;;;;;;;;;;;5049936;28;44894;-77
2022/07/22 13:35:13;;;;;;;;;;;;;;;;;;5043073;28;46514;-77
2022/07/22 13:37:39;;;;;;;;;;;;;;;;;;5044674;28;44057;-77
2022/07/22 13:40:06;;;;;;;;;;;;;;;;;;5051301;28;46464;-77
2022/07/22 13:42:32;;;;;;;;;;;;;;;;;;5045656;28;47844;-77
2022/07/22 13:44:58;;;;;;;;;;;;;;;;;;5039308;28;44924;-77
2022/07/22 13:47:26;;;;;;;;;;;;;;;;;;5066182;28;47502;-77
2022/07/22 13:49:53;;;;;;;;;;;;;;;;;;5058536;28;46291;-76
2022/07/22 13:52:19;;;;;;;;;;;;;;;;;;5033612;28;44791;-76
2022/07/22 13:54:45;;;;;;;;;;;;;;;;;;5054003;28;44776;-77
2022/07/22 13:57:16;;;;;;;;;;;;;;;;;;5057607;28;47275;-77
2022/07/22 13:59:43;;;;;;;;;;;;;;;;;;5045810;28;46452;-77
2022/07/22 14:02:09;;;;;;;;;;;;;;;;;;5044346;28;45448;-77
2022/07/22 14:04:35;;;;;;;;;;;;;;;;;;5059731;28;45858;-77
2022/07/22 14:07:01;;;;;;;;;;;;;;;;;;5068104;28;46483;-77
2022/07/22 14:09:28;;;;;;;;;;;;;;;;;;5047833;28;46923;-77
2022/07/22 14:12:02;;;;;;;;;;;;;;;;;;5044755;28;44193;-77
2022/07/22 14:14:28;;;;;;;;;;;;;;;;;;5063232;28;46321;-77
2022/07/22 14:16:54;;;;;;;;;;;;;;;;;;5062183;28;48100;-76
2022/07/22 14:19:23;;;;;;;;;;;;;;;;;;5064454;28;43578;-77
2022/07/22 14:21:49;;;;;;;;;;;;;;;;;;5047010;28;46805;-77
2022/07/22 14:24:15;;;;;;;;;;;;;;;;;;5065119;28;43633;-77
2022/07/22 14:26:42;;;;;;;;;;;;;;;;;;5050058;28;47409;-77
2022/07/22 14:29:10;;;;;;;;;;;;;;;;;;5065143;28;37279;-77
2022/07/22 14:31:36;;;;;;;;;;;;;;;;;;5061400;28;43755;-77
2022/07/22 14:34:03;;;;;;;;;;;;;;;;;;5067582;28;46295;-77
2022/07/22 14:36:29;;;;;;;;;;;;;;;;;;5064981;28;46884;-77
2022/07/22 14:38:55;;;;;;;;;;;;;;;;;;5063056;28;43680;-77
2022/07/22 14:41:21;;;;;;;;;;;;;;;;;;5057933;28;46585;-77
2022/07/22 14:43:48;;;;;;;;;;;;;;;;;;5049823;28;45098;-77
2022/07/22 14:46:14;;;;;;;;;;;;;;;;;;5062894;28;47136;-77
2022/07/22 14:48:41;;;;;;;;;;;;;;;;;;5048260;28;47651;-77
2022/07/22 14:51:07;;;;;;;;;;;;;;;;;;5059809;28;42458;-77
2022/07/22 14:53:33;;;;;;;;;;;;;;;;;;5065479;28;45944;-77
2022/07/22 14:56:00;;;;;;;;;;;;;;;;;;5065016;28;45266;-77
2022/07/22 14:58:26;;;;;;;;;;;;;;;;;;5067585;28;44094;-77
2022/07/22 15:00:52;;;;;;;;;;;;;;;;;;5065175;28;46436;-77
2022/07/22 15:03:18;;;;;;;;;;;;;;;;;;5044123;28;48333;-77
2022/07/22 15:05:45;;;;;;;;;;;;;;;;;;5045081;28;46424;-77
2022/07/22 15:08:11;;;;;;;;;;;;;;;;;;5046018;28;48426;-77
2022/07/22 15:10:38;;;;;;;;;;;;;;;;;;5045582;28;44898;-77
2022/07/22 15:13:04;;;;;;;;;;;;;;;;;;5066519;28;46523;-76
2022/07/22 15:15:30;;;;;;;;;;;;;;;;;;5063542;28;48133;-76
2022/07/22 15:17:58;;;;;;;;;;;;;;;;;;5062607;28;44716;-77
2022/07/22 15:20:24;;;;;;;;;;;;;;;;;;5062106;28;46907;-76
2022/07/22 15:22:51;;;;;;;;;;;;;;;;;;5046772;28;48788;-76
2022/07/22 15:25:17;;;;;;;;;;;;;;;;;;5047639;28;42091;-76
2022/07/22 15:27:43;;;;;;;;;;;;;;;;;;5042955;28;47528;-76
2022/07/22 15:30:10;;;;;;;;;;;;;;;;;;5065555;28;44865;-76
2022/07/22 15:32:42;;;;;;;;;;;;;;;;;;5064701;28;48158;-76
2022/07/22 15:35:08;;;;;;;;;;;;;;;;;;5062759;28;48132;-76
2022/07/22 15:37:37;;;;;;;;;;;;;;;;;;5052990;28;44913;-76
2022/07/22 15:40:03;;;;;;;;;;;;;;;;;;5065396;28;46499;-76
2022/07/22 15:42:29;;;;;;;;;;;;;;;;;;5064897;28;46471;-76
2022/07/22 15:44:55;;;;;;;;;;;;;;;;;;5059251;28;42639;-76
2022/07/22 15:47:22;;;;;;;;;;;;;;;;;;5045707;28;48128;-76
2022/07/22 15:49:48;;;;;;;;;;;;;;;;;;5046279;28;40034;-76
2022/07/22 15:52:18;;;;;;;;;;;;;;;;;;5060502;28;47508;-76
2022/07/22 15:54:45;;;;;;;;;;;;;;;;;;5062490;28;47868;-76
2022/07/22 15:59:56;;;;;;;;;;;;;;;;;;5055208;28;47554;-77
2022/07/22 16:02:22;;;;;;;;;;;;;;;;;;5046009;28;47311;-76
2022/07/22 16:04:49;;;;;;;;;;;;;;;;;;5045294;28;43727;-75
2022/07/22 16:07:15;;;;;;;;;;;;;;;;;;5042862;28;47511;-76
2022/07/22 16:09:41;;;;;;;;;;;;;;;;;;5043700;28;44672;-76
2022/07/22 16:12:07;;;;;;;;;;;;;;;;;;5037513;28;44842;-76
2022/07/22 16:14:34;;;;;;;;;;;;;;;;;;5054486;28;45941;-76
2022/07/22 16:17:00;;;;;;;;;;;;;;;;;;5046463;28;44196;-76
2022/07/22 16:19:26;;;;;;;;;;;;;;;;;;5045396;28;47873;-75
2022/07/22 16:21:52;;;;;;;;;;;;;;;;;;5066397;28;47170;-76
2022/07/22 16:24:19;;;;;;;;;;;;;;;;;;5061638;28;45487;-80
2022/07/22 16:26:45;;;;;;;;;;;;;;;;;;5061342;28;49513;-73
2022/07/22 16:29:11;;;;;;;;;;;;;;;;;;5049923;28;47015;-75
2022/07/22 16:31:38;;;;;;;;;;;;;;;;;;5068811;28;47723;-74
2022/07/22 16:34:04;;;;;;;;;;;;;;;;;;5067246;28;46576;-76
2022/07/22 16:36:30;;;;;;;;;;;;;;;;;;5062323;28;43303;-77
2022/07/22 16:38:56;;;;;;;;;;;;;;;;;;5051394;28;47493;-77
2022/07/22 16:41:23;;;;;;;;;;;;;;;;;;5048018;28;50160;-76
2022/07/22 16:43:52;;;;;;;;;;;;;;;;;;5066167;28;44938;-76
2022/07/22 16:46:18;;;;;;;;;;;;;;;;;;5050373;28;46351;-76
2022/07/22 16:48:45;;;;;;;;;;;;;;;;;;5064325;28;48215;-77
2022/07/22 16:51:11;;;;;;;;;;;;;;;;;;5062003;28;40205;-78
2022/07/22 16:53:42;;;;;;;;;;;;;;;;;;5043923;28;45301;-78
2022/07/22 16:56:08;;;;;;;;;;;;;;;;;;5048521;28;47192;-78
2022/07/22 16:58:34;;;;;;;;;;;;;;;;;;5044176;28;46340;-78
2022/07/22 17:01:00;;;;;;;;;;;;;;;;;;5049616;28;47266;-78